Shiloh, NC (27974)

3:05 AM EST on February 09, 2016 (GMT -0500)
APRSWXNET | | Change Station
CLOSE
Current Station
Personal Weather Station
Location: Shiloh, NC
Elevation: 6 ft
Nearby Weather Stations

Elev 6 ft 36.26 °N, 76.10 °W | Updated 21 minutes ago

Mostly Cloudy
Mostly Cloudy
43 °F
Feels Like 43 °F
N
3
Wind Variable Wind from SW
Gusts 4.0 mph

Today
High -- | Low -- °F
--% Chance of Precip.
Yesterday
High -- | Low -- °F
Precip. -- in
Pressure 29.56 in
Visibility 8.0 miles
Clouds Mostly Cloudy 12000 ft
Windchill 43 °F
Dew Point 41 °F
Humidity 91%
Rainfall in
Snow Depth Not available.
6:58 AM 5:38 PM
New Moon, 1% visible
METAR KECG 090754Z AUTO 24005KT 8SM BKN120 04/03 A2956 RMK AO2 SLP010 T00390028
Pressure 29.56 in
Visibility 8.0 miles
Clouds Mostly Cloudy 12000 ft
Windchill 43 °F
Dew Point 41 °F
Humidity 91%
Rainfall in
Snow Depth Not available.
6:58 AM 5:38 PM
New Moon, 1% visible
METAR KECG 090754Z AUTO 24005KT 8SM BKN120 04/03 A2956 RMK AO2 SLP010 T00390028

10-Day Weather Forecast

Almanac

Astronomy

Feb. 09, 2016 Rise Set
Actual Time
Civil Twilight
Nautical Twilight
Astronomical Twilight
Moon
Length of Visible Light
Length of Day
Tomorrow will be .
, % of the Moon is Illuminated

Today's Extremes

State Highs State Lows

Community

WunderPhotos

Upload Photos

1,891,571 photos uploaded!

WunderBlog® & News

Nearby

Air Quality

  Air Quality AQ Index Pollutant
Not available.

Snow Depth

Station Depth Elevation

Earthquake Activity

City Distance Mag. Time & Date
Minimum magnitude displayed is 2.5.

Coastal Water Temperatures

Place Temperature

Stations

Nearby Weather Stations

Station Location Temp. Windchill Dew Point Humidity Wind Precip. Elev Updated Type
                   

Watches & Warnings

There are currently no watches in effect.